Neftekamsk, Russia
Current Conditions -  °F | °C
As of 12:00 AM on Friday 24 Oct 2014 (Local Time) from UWKE Reporting Station
Snow Showers Snow Showers  
Wind Chill:   Ceiling: 800
Heat Index: 16°   Visibility: 1.8mi
Dew Point: 12°   Wind: 13mph
Humidity: 86%   Direction: 320°NW
Pressure: 29.8"   Gusts: NA
Location:  56.08°N, 54.27°E
Report Text: UWKE 231900Z 32006MPS 3000 -SHSN OVC008CB M09/M11 Q1009 NOSIGRMK QFE740/0986 21451055
Loading
Personal Weather Stations






























Interactive Weather Map
Tropical Storm Tracking
New forecast layout! Learn more

10-Day Weather Forecast

Advertisements
Track Severe Weather on mobile